createdAt,value
2018-07-26T04:00:34.189Z,16.32
2018-07-26T04:01:34.124Z,16.18
2018-07-26T04:02:34.116Z,16.27
2018-07-26T04:03:34.106Z,16.36
2018-07-26T04:04:34.086Z,16.27
2018-07-26T04:05:34.165Z,16.25
2018-07-26T04:06:34.062Z,16.22
2018-07-26T04:07:34.052Z,16.18
2018-07-26T04:08:34.045Z,16.22
2018-07-26T04:09:34.031Z,16.14
2018-07-26T04:10:34.021Z,16.16
2018-07-26T04:11:34.018Z,16.13
2018-07-26T04:12:33.993Z,16.13
2018-07-26T04:13:33.985Z,16.10
2018-07-26T04:14:33.977Z,16.14
2018-07-26T04:15:33.984Z,16.13
2018-07-26T04:16:33.961Z,16.18
2018-07-26T04:17:33.945Z,16.17
2018-07-26T04:18:33.930Z,16.18
2018-07-26T04:19:33.919Z,16.16
2018-07-26T04:20:33.904Z,16.18
2018-07-26T04:21:33.916Z,16.22
2018-07-26T04:22:33.886Z,16.16
2018-07-26T04:23:33.873Z,16.16
2018-07-26T04:24:33.864Z,16.23
2018-07-26T04:25:33.850Z,16.27
2018-07-26T04:26:33.839Z,16.26
2018-07-26T04:27:33.845Z,16.18
2018-07-26T04:28:33.820Z,16.14
2018-07-26T04:29:33.816Z,16.26
2018-07-26T04:30:33.797Z,16.29
2018-07-26T04:31:33.785Z,16.32
2018-07-26T04:32:33.787Z,16.30
2018-07-26T04:33:33.764Z,16.29
2018-07-26T04:34:33.786Z,16.22
2018-07-26T04:35:33.749Z,16.22
2018-07-26T04:36:33.736Z,16.23
2018-07-26T04:37:33.752Z,16.17
2018-07-26T04:38:33.715Z,16.22
2018-07-26T04:39:33.715Z,16.17
2018-07-26T04:40:33.689Z,16.10
2018-07-26T04:41:33.674Z,16.07
2018-07-26T04:42:33.667Z,15.99
2018-07-26T04:43:33.663Z,16.10
2018-07-26T04:44:33.649Z,15.99
2018-07-26T04:45:33.634Z,16.13
2018-07-26T04:46:33.619Z,16.16
2018-07-26T04:47:33.612Z,16.11
2018-07-26T04:48:33.618Z,16.18
2018-07-26T04:49:33.598Z,16.11
2018-07-26T04:50:33.580Z,16.23
2018-07-26T04:51:33.571Z,16.16
2018-07-26T04:52:33.555Z,16.17
2018-07-26T04:53:33.555Z,16.17
2018-07-26T04:54:33.570Z,16.17
2018-07-26T04:55:33.522Z,16.18
2018-07-26T04:56:33.515Z,16.18
2018-07-26T04:57:33.509Z,16.16
2018-07-26T04:58:33.505Z,16.22
2018-07-26T04:59:33.478Z,16.13
2018-07-26T05:00:33.467Z,16.13
2018-07-26T05:01:33.456Z,16.16
2018-07-26T05:02:33.450Z,16.17
2018-07-26T05:03:33.444Z,16.11
2018-07-26T05:04:33.426Z,16.22
2018-07-26T05:05:33.416Z,16.17
2018-07-26T05:06:33.409Z,16.13
2018-07-26T05:07:33.389Z,16.17
2018-07-26T05:08:33.411Z,16.16
2018-07-26T05:09:33.372Z,16.18
2018-07-26T05:10:33.356Z,16.22
2018-07-26T05:11:33.346Z,16.11
2018-07-26T05:12:33.341Z,16.13
2018-07-26T05:13:33.325Z,16.16
2018-07-26T05:14:33.330Z,16.13
2018-07-26T05:15:33.307Z,16.16
2018-07-26T05:16:33.294Z,16.18
2018-07-26T05:17:33.282Z,16.10
2018-07-26T05:18:33.336Z,16.16
2018-07-26T05:19:33.269Z,16.10
2018-07-26T05:20:33.247Z,16.08
2018-07-26T05:21:33.235Z,16.11
2018-07-26T05:22:33.224Z,16.08
2018-07-26T05:23:33.228Z,16.03
2018-07-26T05:24:33.216Z,16.14
2018-07-26T05:25:33.192Z,16.08
2018-07-26T05:26:33.182Z,16.14
2018-07-26T05:27:33.174Z,16.11
2018-07-26T05:28:33.190Z,16.10
2018-07-26T05:29:33.165Z,16.14
2018-07-26T05:30:33.140Z,16.18
2018-07-26T05:31:33.127Z,16.17
2018-07-26T05:32:33.130Z,16.22
2018-07-26T05:33:33.125Z,16.16
2018-07-26T05:34:33.093Z,16.14
2018-07-26T05:35:33.095Z,16.17
2018-07-26T05:36:33.072Z,16.17
2018-07-26T05:37:33.094Z,16.16
2018-07-26T05:38:33.047Z,16.13
2018-07-26T05:39:33.039Z,16.18
2018-07-26T05:40:33.036Z,16.18
2018-07-26T05:41:33.020Z,16.14
2018-07-26T05:42:33.005Z,16.11
2018-07-26T05:43:32.995Z,16.26
2018-07-26T05:44:32.986Z,16.27
2018-07-26T05:45:32.987Z,16.16
2018-07-26T05:46:32.964Z,16.26
2018-07-26T05:47:32.963Z,16.33
2018-07-26T05:48:32.937Z,16.29
2018-07-26T05:49:32.926Z,16.25
2018-07-26T05:50:32.927Z,16.34
2018-07-26T05:51:32.910Z,16.29
2018-07-26T05:52:32.901Z,16.32
2018-07-26T05:53:32.899Z,16.37
2018-07-26T05:54:32.881Z,16.34
2018-07-26T05:55:32.874Z,16.41
2018-07-26T05:56:32.854Z,16.36
2018-07-26T05:57:32.842Z,16.36
2018-07-26T05:58:32.828Z,16.36
2018-07-26T05:59:32.832Z,16.36
2018-07-26T06:00:32.816Z,16.44
2018-07-26T06:01:32.806Z,16.44
2018-07-26T06:02:32.785Z,16.47
2018-07-26T06:03:32.773Z,16.52
2018-07-26T06:04:32.764Z,16.41
2018-07-26T06:05:32.764Z,16.52
2018-07-26T06:06:32.746Z,16.59
2018-07-26T06:07:32.731Z,16.80
2018-07-26T06:08:32.722Z,17.09
2018-07-26T06:09:32.711Z,17.47
2018-07-26T06:10:32.715Z,17.80
2018-07-26T06:11:32.691Z,18.01
2018-07-26T06:12:32.677Z,18.35
2018-07-26T06:13:32.662Z,18.62
2018-07-26T06:14:32.655Z,18.78
2018-07-26T06:15:32.650Z,19.13
2018-07-26T06:16:32.634Z,19.28
2018-07-26T06:17:32.626Z,19.49
2018-07-26T06:18:32.611Z,19.68
2018-07-26T06:19:32.596Z,19.89
2018-07-26T06:20:32.628Z,20.12
2018-07-26T06:21:32.576Z,20.37
2018-07-26T06:22:32.572Z,20.53
2018-07-26T06:23:32.557Z,20.64
2018-07-26T06:24:32.540Z,20.85
2018-07-26T06:25:32.530Z,21.06
2018-07-26T06:26:32.531Z,21.27
2018-07-26T06:27:32.511Z,21.34
2018-07-26T06:28:32.498Z,21.43
2018-07-26T06:29:32.485Z,21.53
2018-07-26T06:30:32.477Z,21.66
2018-07-26T06:31:32.476Z,21.81
2018-07-26T06:32:32.455Z,21.89
2018-07-26T06:33:32.461Z,22.06
2018-07-26T06:34:32.455Z,22.06
2018-07-26T06:35:32.423Z,22.21
2018-07-26T06:36:32.427Z,22.35
2018-07-26T06:37:32.398Z,22.31
2018-07-26T06:38:32.387Z,22.46
2018-07-26T06:39:32.472Z,22.57
2018-07-26T06:40:32.368Z,22.69
2018-07-26T06:41:32.372Z,22.76
2018-07-26T06:42:32.346Z,22.93
2018-07-26T06:43:32.338Z,23.01
2018-07-26T06:44:32.322Z,23.18
2018-07-26T06:45:32.309Z,23.32
2018-07-26T06:46:32.313Z,23.45
2018-07-26T06:47:32.285Z,23.59
2018-07-26T06:48:32.282Z,23.90
2018-07-26T06:49:32.269Z,24.27
2018-07-26T06:50:32.258Z,24.37
2018-07-26T06:51:32.276Z,24.53
2018-07-26T06:52:32.230Z,24.60
2018-07-26T06:53:32.222Z,24.64
2018-07-26T06:54:32.209Z,24.79
2018-07-26T06:55:32.198Z,25.01
2018-07-26T06:56:32.202Z,25.09
2018-07-26T06:57:32.181Z,25.26
2018-07-26T06:58:32.168Z,25.31
2018-07-26T06:59:32.155Z,25.59
2018-07-26T07:00:32.149Z,25.79
2018-07-26T07:01:32.154Z,25.81
2018-07-26T07:02:32.127Z,25.96
2018-07-26T07:03:32.112Z,25.89
2018-07-26T07:04:32.114Z,25.98
2018-07-26T07:05:32.092Z,25.97
2018-07-26T07:06:32.119Z,26.09
2018-07-26T07:07:32.079Z,26.06
2018-07-26T07:08:32.061Z,26.13
2018-07-26T07:09:32.049Z,26.27
2018-07-26T07:10:32.038Z,26.41
2018-07-26T07:11:32.029Z,26.59
2018-07-26T07:12:32.029Z,26.57
2018-07-26T07:13:32.010Z,26.64
2018-07-26T07:14:31.998Z,26.84
2018-07-26T07:15:31.986Z,27.02
2018-07-26T07:16:31.973Z,27.15
2018-07-26T07:17:31.975Z,27.30
2018-07-26T07:18:31.953Z,27.39
2018-07-26T07:19:31.942Z,27.52
2018-07-26T07:20:31.962Z,27.42
2018-07-26T07:21:31.923Z,27.43
2018-07-26T07:22:31.921Z,27.71
2018-07-26T07:23:31.898Z,27.58
2018-07-26T07:24:31.890Z,27.69
2018-07-26T07:25:31.879Z,27.80
2018-07-26T07:26:31.866Z,27.96
2018-07-26T07:27:31.872Z,28.06
2018-07-26T07:28:31.847Z,28.03
2018-07-26T07:29:31.835Z,28.02
2018-07-26T07:30:31.824Z,28.18
2018-07-26T07:31:31.820Z,28.27
2018-07-26T07:32:31.818Z,28.57
2018-07-26T07:33:31.797Z,28.69
2018-07-26T07:34:31.788Z,28.87
2018-07-26T07:35:31.797Z,29.03
2018-07-26T07:36:31.760Z,29.20
2018-07-26T07:37:31.784Z,29.26
2018-07-26T07:38:31.740Z,29.36
2018-07-26T07:39:31.728Z,29.41
2018-07-26T07:40:31.717Z,29.62
2018-07-26T07:41:31.707Z,29.60
2018-07-26T07:42:31.696Z,29.73
2018-07-26T07:43:31.697Z,29.84
2018-07-26T07:44:31.677Z,30.01
2018-07-26T07:45:31.664Z,30.23
2018-07-26T07:46:31.668Z,30.28
2018-07-26T07:47:31.684Z,30.23
2018-07-26T07:48:31.645Z,30.10
2018-07-26T07:49:31.627Z,30.51
2018-07-26T07:50:31.610Z,30.49
2018-07-26T07:51:31.600Z,30.59
2018-07-26T07:52:31.592Z,30.56
2018-07-26T07:53:31.592Z,30.42
2018-07-26T07:54:31.571Z,30.48
2018-07-26T07:55:31.556Z,30.45
2018-07-26T07:56:31.547Z,30.38
2018-07-26T07:57:31.537Z,30.46
2018-07-26T07:58:31.541Z,30.63
2018-07-26T07:59:31.560Z,30.78
2018-07-26T08:00:31.504Z,30.54
2018-07-26T08:01:31.492Z,30.56
2018-07-26T08:02:31.482Z,30.75
2018-07-26T08:03:31.482Z,30.83
2018-07-26T08:04:31.462Z,31.09
2018-07-26T08:05:31.455Z,31.30
2018-07-26T08:06:31.473Z,31.38
2018-07-26T08:07:31.429Z,31.30
2018-07-26T08:08:31.436Z,31.35
2018-07-26T08:09:31.407Z,31.35
2018-07-26T08:10:31.397Z,31.57
2018-07-26T08:11:31.395Z,31.49
2018-07-26T08:12:31.450Z,31.64
2018-07-26T08:13:31.368Z,31.59
2018-07-26T08:14:31.363Z,31.52
2018-07-26T08:15:31.343Z,31.74
2018-07-26T08:16:31.333Z,31.79
2018-07-26T08:17:31.326Z,31.65
2018-07-26T08:18:31.311Z,31.49
2018-07-26T08:19:31.310Z,31.53
2018-07-26T08:20:31.288Z,31.46
2018-07-26T08:21:31.282Z,31.50
2018-07-26T08:22:31.270Z,31.59
2018-07-26T08:23:31.259Z,31.71
2018-07-26T08:24:31.256Z,31.64
2018-07-26T08:25:31.235Z,31.78
2018-07-26T08:26:31.226Z,31.99
2018-07-26T08:27:31.215Z,32.12
2018-07-26T08:28:31.204Z,32.19
2018-07-26T08:29:31.261Z,32.36
2018-07-26T08:30:31.188Z,32.66
2018-07-26T08:31:31.174Z,32.72
2018-07-26T08:32:31.162Z,32.49
2018-07-26T08:33:31.151Z,32.28
2018-07-26T08:34:31.157Z,32.44
2018-07-26T08:35:31.130Z,32.51
2018-07-26T08:36:31.120Z,32.50
2018-07-26T08:37:31.115Z,32.53
2018-07-26T08:38:31.103Z,32.59
2018-07-26T08:39:31.101Z,32.59
2018-07-26T08:40:31.081Z,33.03
2018-07-26T08:41:31.068Z,33.34
2018-07-26T08:42:31.054Z,33.18
2018-07-26T08:43:31.070Z,33.06
2018-07-26T08:44:31.049Z,33.02
2018-07-26T08:45:31.022Z,33.05
2018-07-26T08:46:31.013Z,33.26
2018-07-26T08:47:31.004Z,33.20
2018-07-26T08:48:30.991Z,33.35
2018-07-26T08:49:30.993Z,33.60
2018-07-26T08:50:30.973Z,33.87
2018-07-26T08:51:30.957Z,34.33
2018-07-26T08:52:30.949Z,34.27
2018-07-26T08:53:30.939Z,33.71
2018-07-26T08:54:30.941Z,33.99
2018-07-26T08:55:30.917Z,34.08
2018-07-26T08:56:30.907Z,33.78
2018-07-26T08:57:30.895Z,33.79
2018-07-26T08:58:30.885Z,33.89
2018-07-26T08:59:30.884Z,33.70
2018-07-26T09:00:30.864Z,32.81
2018-07-26T09:01:30.861Z,33.34
2018-07-26T09:02:30.843Z,33.71
2018-07-26T09:03:30.837Z,33.60
2018-07-26T09:04:30.832Z,33.66
2018-07-26T09:05:30.925Z,34.11
2018-07-26T09:06:30.805Z,34.72
2018-07-26T09:07:30.792Z,34.69
2018-07-26T09:08:30.780Z,34.93
2018-07-26T09:09:30.782Z,35.09
2018-07-26T09:10:30.772Z,35.61
2018-07-26T09:11:30.754Z,36.21
2018-07-26T09:12:30.736Z,36.30
2018-07-26T09:13:30.807Z,35.91
2018-07-26T09:14:30.752Z,35.92
2018-07-26T09:15:30.717Z,36.08
2018-07-26T09:16:30.703Z,36.02
2018-07-26T09:17:30.701Z,35.98
2018-07-26T09:18:30.675Z,35.76
2018-07-26T09:19:30.676Z,35.64
2018-07-26T09:20:31.098Z,35.44
2018-07-26T09:21:30.642Z,35.31
2018-07-26T09:22:30.636Z,35.24
2018-07-26T09:23:30.620Z,35.25
2018-07-26T09:24:30.657Z,35.43
2018-07-26T09:25:30.609Z,35.61
2018-07-26T09:26:30.597Z,35.95
2018-07-26T09:27:30.582Z,36.41
2018-07-26T09:28:30.564Z,36.69
2018-07-26T09:29:30.555Z,36.79
2018-07-26T09:30:30.565Z,36.38
2018-07-26T09:31:30.540Z,36.15
2018-07-26T09:32:30.525Z,36.46
2018-07-26T09:33:30.516Z,36.49
2018-07-26T09:34:30.501Z,36.27
2018-07-26T09:35:30.567Z,36.11
2018-07-26T09:36:30.483Z,36.12
2018-07-26T09:37:30.469Z,36.38
2018-07-26T09:38:30.459Z,35.89
2018-07-26T09:39:30.452Z,35.99
2018-07-26T09:40:30.449Z,35.89
2018-07-26T09:41:30.428Z,36.11
2018-07-26T09:42:30.416Z,36.53
2018-07-26T09:43:30.406Z,36.67
2018-07-26T09:44:30.396Z,36.94
2018-07-26T09:45:30.399Z,37.27
2018-07-26T09:46:30.373Z,37.05
2018-07-26T09:47:30.363Z,36.83
2018-07-26T09:48:30.358Z,36.06
2018-07-26T09:49:30.346Z,35.73
2018-07-26T09:50:30.333Z,35.81
2018-07-26T09:51:30.335Z,35.77
2018-07-26T09:52:30.319Z,35.68
2018-07-26T09:53:30.300Z,35.32
2018-07-26T09:54:30.290Z,35.15
2018-07-26T09:55:30.283Z,35.22
2018-07-26T09:56:30.284Z,35.31
2018-07-26T09:57:30.291Z,35.06
2018-07-26T09:58:30.246Z,35.22
2018-07-26T09:59:30.243Z,35.61
2018-07-26T10:00:30.226Z,35.99
2018-07-26T10:01:30.229Z,35.64
2018-07-26T10:02:30.248Z,35.54
2018-07-26T10:03:30.196Z,35.64
2018-07-26T10:04:30.185Z,35.78
2018-07-26T10:05:30.174Z,35.85
2018-07-26T10:06:30.176Z,35.78
2018-07-26T10:07:30.153Z,35.54
2018-07-26T10:08:30.146Z,35.21
2018-07-26T10:09:30.133Z,34.46
2018-07-26T10:10:30.123Z,33.65
2018-07-26T10:11:30.125Z,33.20
2018-07-26T10:12:31.868Z,32.80
2018-07-26T10:13:30.091Z,32.25
2018-07-26T10:14:30.081Z,32.05
2018-07-26T10:15:30.069Z,31.68
2018-07-26T10:16:30.074Z,31.22
2018-07-26T10:17:30.067Z,31.07
2018-07-26T10:18:30.068Z,30.75
2018-07-26T10:19:30.024Z,30.73
2018-07-26T10:20:30.018Z,30.57
2018-07-26T10:21:30.023Z,30.23
2018-07-26T10:22:29.998Z,30.11
2018-07-26T10:23:29.985Z,30.01
2018-07-26T10:24:29.973Z,29.78
2018-07-26T10:25:29.969Z,29.78
2018-07-26T10:26:29.966Z,29.73
2018-07-26T10:27:29.940Z,29.70
2018-07-26T10:28:29.946Z,29.71
2018-07-26T10:29:29.922Z,29.76
2018-07-26T10:30:29.909Z,29.79
2018-07-26T10:31:29.908Z,29.74
2018-07-26T10:32:29.886Z,29.66
2018-07-26T10:33:29.876Z,29.66
2018-07-26T10:34:29.864Z,29.67
2018-07-26T10:35:29.858Z,29.70
2018-07-26T10:36:29.853Z,29.70
2018-07-26T10:37:29.868Z,29.66
2018-07-26T10:38:29.823Z,29.60
2018-07-26T10:39:29.917Z,29.63
2018-07-26T10:40:29.801Z,29.49
2018-07-26T10:41:29.791Z,29.52
2018-07-26T10:42:29.813Z,29.44
2018-07-26T10:43:29.776Z,29.41
2018-07-26T10:44:29.783Z,29.45
2018-07-26T10:45:29.898Z,29.41
2018-07-26T10:46:29.745Z,29.41
2018-07-26T10:47:29.738Z,29.47
2018-07-26T10:48:29.724Z,29.55
2018-07-26T10:49:29.708Z,29.45
2018-07-26T10:50:29.701Z,29.44
2018-07-26T10:51:29.689Z,29.49
2018-07-26T10:52:29.683Z,29.60
2018-07-26T10:53:29.671Z,29.62
2018-07-26T10:54:29.658Z,29.69
2018-07-26T10:55:29.654Z,29.69
2018-07-26T10:56:29.634Z,29.76
2018-07-26T10:57:29.638Z,29.84
2018-07-26T10:58:29.610Z,29.81
2018-07-26T10:59:29.599Z,29.71
2018-07-26T11:00:29.589Z,29.86
2018-07-26T11:01:29.576Z,29.95
2018-07-26T11:02:29.574Z,29.91
2018-07-26T11:03:29.562Z,29.82
2018-07-26T11:04:29.549Z,29.85
2018-07-26T11:05:29.535Z,29.82
2018-07-26T11:06:29.527Z,29.81
2018-07-26T11:07:29.540Z,29.71
2018-07-26T11:08:29.513Z,29.63
2018-07-26T11:09:29.506Z,29.66
2018-07-26T11:10:29.487Z,29.63
2018-07-26T11:11:29.472Z,29.62
2018-07-26T11:12:29.472Z,29.63
2018-07-26T11:13:29.460Z,29.51
2018-07-26T11:14:29.444Z,29.42
2018-07-26T11:15:29.429Z,29.33
2018-07-26T11:16:29.467Z,29.35
2018-07-26T11:17:29.429Z,29.32
2018-07-26T11:18:29.394Z,29.45
2018-07-26T11:19:29.385Z,29.49
2018-07-26T11:20:29.379Z,29.47
2018-07-26T11:21:29.369Z,29.47
2018-07-26T11:22:29.352Z,29.41
2018-07-26T11:23:29.355Z,29.45
2018-07-26T11:24:29.334Z,29.41
2018-07-26T11:25:29.347Z,29.48
2018-07-26T11:26:29.310Z,29.41
2018-07-26T11:27:29.299Z,29.49
2018-07-26T11:28:29.302Z,29.51
2018-07-26T11:29:29.279Z,29.45
2018-07-26T11:30:29.268Z,29.52
2018-07-26T11:31:29.257Z,29.54
2018-07-26T11:32:29.300Z,29.55
2018-07-26T11:33:29.247Z,29.67
2018-07-26T11:34:29.224Z,29.73
2018-07-26T11:35:29.215Z,29.71
2018-07-26T11:36:29.202Z,29.78
2018-07-26T11:37:29.193Z,29.81
2018-07-26T11:38:29.194Z,29.88
2018-07-26T11:39:29.175Z,29.86
2018-07-26T11:40:29.163Z,29.79
2018-07-26T11:41:29.204Z,29.71
2018-07-26T11:42:29.139Z,29.70
2018-07-26T11:43:29.158Z,29.60
2018-07-26T11:44:29.120Z,29.69
2018-07-26T11:45:29.110Z,29.62
2018-07-26T11:46:29.192Z,29.63
2018-07-26T11:47:29.088Z,29.58
2018-07-26T11:48:29.085Z,29.60
2018-07-26T11:49:29.067Z,29.58
2018-07-26T11:50:29.054Z,29.55
2018-07-26T11:51:29.041Z,29.52
2018-07-26T11:52:29.068Z,29.45
2018-07-26T11:53:29.069Z,29.42
2018-07-26T11:54:29.010Z,29.39
2018-07-26T11:55:29.005Z,29.41
2018-07-26T11:56:28.989Z,29.41
2018-07-26T11:57:28.978Z,29.39
2018-07-26T11:58:28.980Z,29.36
2018-07-26T11:59:28.959Z,29.35
2018-07-26T12:00:28.947Z,29.49
2018-07-26T12:01:29.053Z,29.57
2018-07-26T12:02:29.007Z,29.63
2018-07-26T12:03:28.997Z,29.64
2018-07-26T12:04:28.903Z,29.60
2018-07-26T12:05:28.893Z,29.64
2018-07-26T12:06:28.884Z,29.60
2018-07-26T12:07:28.905Z,29.64
2018-07-26T12:08:28.862Z,29.64
2018-07-26T12:09:28.881Z,29.60
2018-07-26T12:10:28.840Z,29.69
2018-07-26T12:11:28.863Z,29.78
2018-07-26T12:12:28.819Z,29.69
2018-07-26T12:13:28.828Z,29.63
2018-07-26T12:14:28.897Z,29.66
2018-07-26T12:15:28.800Z,29.63
2018-07-26T12:16:28.819Z,29.60
2018-07-26T12:17:29.203Z,29.55
2018-07-26T12:18:28.838Z,29.67
2018-07-26T12:19:29.047Z,29.74
2018-07-26T12:20:28.849Z,29.78
2018-07-26T12:21:28.804Z,29.73
2018-07-26T12:22:28.749Z,29.82
2018-07-26T12:23:28.765Z,29.88
2018-07-26T12:24:28.692Z,29.89
2018-07-26T12:25:28.820Z,29.89
2018-07-26T12:26:28.696Z,29.95
2018-07-26T12:27:28.658Z,30.01
2018-07-26T12:28:28.654Z,29.94
2018-07-26T12:29:28.638Z,29.94
2018-07-26T12:30:28.638Z,29.85
2018-07-26T12:31:28.619Z,29.89
2018-07-26T12:32:28.608Z,29.81
2018-07-26T12:33:28.593Z,29.79
2018-07-26T12:34:28.583Z,29.82
2018-07-26T12:35:28.581Z,29.76
2018-07-26T12:36:28.563Z,29.76
2018-07-26T12:37:28.551Z,29.74
2018-07-26T12:38:28.541Z,29.74
2018-07-26T12:39:28.529Z,29.74
2018-07-26T12:40:28.528Z,29.66
2018-07-26T12:41:28.572Z,29.62
2018-07-26T12:42:28.498Z,29.70
2018-07-26T12:43:28.491Z,29.62
2018-07-26T12:44:28.477Z,29.55
2018-07-26T12:45:28.484Z,29.58
2018-07-26T12:46:28.457Z,29.64
2018-07-26T12:47:28.507Z,29.69
2018-07-26T12:48:28.436Z,29.67
2018-07-26T12:49:28.422Z,29.62
2018-07-26T12:50:28.423Z,29.49
2018-07-26T12:51:28.401Z,29.55
2018-07-26T12:52:28.393Z,29.66
2018-07-26T12:53:28.380Z,29.71
2018-07-26T12:54:28.370Z,29.73
2018-07-26T12:55:28.399Z,29.69
2018-07-26T12:56:28.347Z,29.67
2018-07-26T12:57:28.338Z,29.74
2018-07-26T12:58:28.327Z,29.63
2018-07-26T12:59:28.314Z,29.69
2018-07-26T13:00:28.306Z,29.66
2018-07-26T13:01:28.321Z,29.66
2018-07-26T13:02:28.292Z,29.62
2018-07-26T13:03:28.273Z,29.67
2018-07-26T13:04:28.264Z,29.73
2018-07-26T13:05:28.260Z,29.66
2018-07-26T13:06:28.258Z,29.74
2018-07-26T13:07:28.230Z,29.71
2018-07-26T13:08:28.223Z,29.78
2018-07-26T13:09:28.212Z,29.71
2018-07-26T13:10:28.199Z,29.79
2018-07-26T13:11:28.203Z,29.71
2018-07-26T13:12:28.208Z,29.76
2018-07-26T13:13:28.169Z,29.76
2018-07-26T13:14:28.156Z,29.71
2018-07-26T13:15:28.147Z,29.78
2018-07-26T13:16:28.148Z,29.79
2018-07-26T13:17:28.125Z,29.85
2018-07-26T13:18:28.116Z,29.86
2018-07-26T13:19:28.102Z,29.91
2018-07-26T13:20:28.094Z,29.97
2018-07-26T13:21:28.098Z,29.94
2018-07-26T13:22:28.071Z,29.97
2018-07-26T13:23:28.062Z,29.99
2018-07-26T13:24:28.050Z,29.89
2018-07-26T13:25:28.040Z,29.89
2018-07-26T13:26:28.042Z,29.91
2018-07-26T13:27:28.024Z,29.88
2018-07-26T13:28:28.008Z,29.84
2018-07-26T13:29:27.996Z,29.79
2018-07-26T13:30:27.990Z,29.82
2018-07-26T13:31:27.988Z,29.91
2018-07-26T13:32:27.964Z,29.76
2018-07-26T13:33:27.955Z,29.82
2018-07-26T13:34:27.942Z,29.74
2018-07-26T13:35:27.934Z,29.67
2018-07-26T13:36:27.937Z,29.79
2018-07-26T13:37:27.917Z,29.76
2018-07-26T13:38:27.903Z,29.81
2018-07-26T13:39:27.894Z,29.71
2018-07-26T13:40:27.882Z,29.71
2018-07-26T13:41:27.869Z,29.67
2018-07-26T13:42:27.873Z,29.66
2018-07-26T13:43:27.851Z,29.76
2018-07-26T13:44:27.849Z,29.76
2018-07-26T13:45:27.825Z,29.76
2018-07-26T13:46:27.817Z,29.79
2018-07-26T13:47:27.814Z,29.79
2018-07-26T13:48:27.796Z,29.78
2018-07-26T13:49:27.782Z,29.82
2018-07-26T13:50:27.781Z,29.84
2018-07-26T13:51:27.762Z,29.81
2018-07-26T13:52:27.866Z,29.84
2018-07-26T13:53:27.747Z,29.74
2018-07-26T13:54:27.734Z,29.79
2018-07-26T13:55:27.724Z,29.79
2018-07-26T13:56:27.712Z,29.76
2018-07-26T13:57:27.710Z,29.74
2018-07-26T13:58:27.717Z,29.76
2018-07-26T13:59:27.677Z,29.73
2018-07-26T14:00:27.667Z,29.78
2018-07-26T14:01:27.658Z,29.64
2018-07-26T14:02:27.687Z,29.74
2018-07-26T14:03:27.633Z,29.78
2018-07-26T14:04:27.625Z,29.76
2018-07-26T14:05:27.617Z,29.82
2018-07-26T14:06:27.602Z,29.84
2018-07-26T14:07:27.599Z,29.86
2018-07-26T14:08:27.579Z,29.95
2018-07-26T14:09:27.581Z,29.91
2018-07-26T14:10:27.563Z,29.94
2018-07-26T14:11:27.550Z,29.89
2018-07-26T14:12:27.555Z,29.88
2018-07-26T14:13:27.528Z,29.84
2018-07-26T14:14:27.517Z,29.82
2018-07-26T14:15:27.594Z,29.82
2018-07-26T14:16:27.495Z,29.74
2018-07-26T14:17:27.504Z,29.70
2018-07-26T14:18:27.475Z,29.66
2018-07-26T14:19:27.465Z,29.62
2018-07-26T14:20:27.454Z,29.67
2018-07-26T14:21:27.447Z,29.60
2018-07-26T14:22:27.475Z,29.63
2018-07-26T14:23:27.435Z,29.49
2018-07-26T14:24:27.412Z,29.47
2018-07-26T14:25:27.402Z,29.37
2018-07-26T14:26:27.390Z,29.44
2018-07-26T14:27:27.379Z,29.35
2018-07-26T14:28:27.379Z,29.39
2018-07-26T14:29:27.395Z,29.35
2018-07-26T14:30:27.352Z,29.47
2018-07-26T14:31:27.343Z,29.37
2018-07-26T14:32:27.328Z,29.48
2018-07-26T14:33:27.332Z,29.35
2018-07-26T14:34:27.306Z,29.42
2018-07-26T14:35:27.298Z,29.36
2018-07-26T14:36:27.285Z,29.33
2018-07-26T14:37:27.276Z,29.25
2018-07-26T14:38:27.274Z,29.32
2018-07-26T14:39:27.255Z,29.30
2018-07-26T14:40:27.241Z,29.30
2018-07-26T14:41:27.231Z,29.32
2018-07-26T14:42:27.220Z,29.35
2018-07-26T14:43:27.239Z,29.30
2018-07-26T14:44:27.199Z,29.36
2018-07-26T14:45:27.187Z,29.20
2018-07-26T14:46:27.178Z,29.18
2018-07-26T14:47:27.169Z,29.21
2018-07-26T14:48:27.158Z,29.21
2018-07-26T14:49:27.159Z,29.26
2018-07-26T14:50:27.132Z,29.32
2018-07-26T14:51:27.122Z,29.32
2018-07-26T14:52:27.114Z,29.33
2018-07-26T14:53:27.102Z,29.44
2018-07-26T14:54:27.151Z,29.32
2018-07-26T14:55:27.082Z,29.42
2018-07-26T14:56:27.065Z,29.42
2018-07-26T14:57:27.054Z,29.42
2018-07-26T14:58:27.046Z,29.35
2018-07-26T14:59:27.051Z,29.37
2018-07-26T15:00:27.025Z,29.29
2018-07-26T15:01:27.011Z,29.33
2018-07-26T15:02:27.000Z,29.33
2018-07-26T15:03:26.987Z,29.45
2018-07-26T15:04:26.991Z,29.42
2018-07-26T15:05:26.968Z,29.37
2018-07-26T15:06:26.958Z,29.33
2018-07-26T15:07:26.948Z,29.36
2018-07-26T15:08:26.932Z,29.36
2018-07-26T15:09:26.933Z,29.37
2018-07-26T15:10:26.912Z,29.30
2018-07-26T15:11:26.896Z,29.37
2018-07-26T15:12:26.892Z,29.36
2018-07-26T15:13:26.876Z,29.32
2018-07-26T15:14:26.876Z,29.35
2018-07-26T15:15:26.851Z,29.35
2018-07-26T15:16:26.844Z,29.45
2018-07-26T15:17:26.832Z,29.39
2018-07-26T15:18:26.819Z,29.33
2018-07-26T15:19:26.826Z,29.41
2018-07-26T15:20:26.807Z,29.33
2018-07-26T15:21:26.792Z,29.39
2018-07-26T15:22:26.777Z,29.37
2018-07-26T15:23:26.767Z,29.32
2018-07-26T15:25:58.956Z,29.27
2018-07-26T15:28:02.404Z,29.14
2018-07-26T15:29:02.350Z,29.14
2018-07-26T15:30:02.354Z,29.05
2018-07-26T15:31:02.347Z,29.12
2018-07-26T15:32:02.322Z,29.12
2018-07-26T15:33:02.304Z,29.18
2018-07-26T15:34:02.296Z,29.20
2018-07-26T15:35:02.293Z,29.17
2018-07-26T15:36:02.268Z,29.21
2018-07-26T15:37:02.263Z,29.20
2018-07-26T15:38:02.246Z,29.17
2018-07-26T15:39:02.243Z,29.20
2018-07-26T15:40:02.257Z,29.23
2018-07-26T15:41:02.217Z,29.29
2018-07-26T15:42:02.211Z,29.30
2018-07-26T15:43:02.193Z,29.30
2018-07-26T15:44:02.184Z,29.33
2018-07-26T15:45:02.189Z,29.26
2018-07-26T15:46:02.161Z,29.20
2018-07-26T15:47:02.208Z,29.14
2018-07-26T15:48:02.140Z,29.02
2018-07-26T15:49:02.129Z,28.94
2018-07-26T15:50:02.164Z,28.97
2018-07-26T15:51:02.120Z,29.02
2018-07-26T15:52:02.095Z,28.97
2018-07-26T15:53:02.085Z,29.08
2018-07-26T15:54:02.079Z,29.05
2018-07-26T15:55:02.061Z,29.02
2018-07-26T15:56:02.068Z,29.03
2018-07-26T15:57:02.046Z,29.05
2018-07-26T15:58:02.029Z,29.07
2018-07-26T15:59:02.035Z,29.12
2018-07-26T16:00:02.009Z,28.94
2018-07-26T16:01:02.010Z,28.80
2018-07-26T16:02:01.989Z,28.85
2018-07-26T16:03:01.976Z,28.77
2018-07-26T16:04:01.967Z,28.77
2018-07-26T16:05:01.953Z,28.83
2018-07-26T16:06:01.953Z,28.82
2018-07-26T16:07:01.931Z,28.91
2018-07-26T16:08:01.920Z,28.94
2018-07-26T16:09:01.911Z,28.91
2018-07-26T16:10:01.899Z,28.82
2018-07-26T16:11:01.902Z,28.88
2018-07-26T16:12:01.876Z,28.77
2018-07-26T16:13:01.866Z,28.77
2018-07-26T16:14:01.855Z,28.74
2018-07-26T16:15:01.851Z,28.64
2018-07-26T16:16:01.858Z,28.69
2018-07-26T16:17:01.827Z,28.73
2018-07-26T16:18:01.923Z,28.74
2018-07-26T16:19:01.802Z,28.83
2018-07-26T16:20:01.788Z,28.87
2018-07-26T16:21:01.780Z,28.91
2018-07-26T16:22:01.826Z,28.94
2018-07-26T16:23:01.757Z,28.94
2018-07-26T16:24:01.746Z,28.89
2018-07-26T16:25:01.738Z,28.94
2018-07-26T16:26:01.725Z,29.10
2018-07-26T16:27:01.729Z,29.12
2018-07-26T16:28:01.701Z,29.08
2018-07-26T16:29:01.739Z,29.14
2018-07-26T16:30:01.680Z,29.14
2018-07-26T16:31:01.669Z,29.18
2018-07-26T16:32:01.668Z,29.25
2018-07-26T16:33:01.648Z,29.15
2018-07-26T16:34:01.697Z,29.10
2018-07-26T16:35:01.630Z,29.12
2018-07-26T16:36:01.616Z,29.10
2018-07-26T16:37:01.616Z,28.87
2018-07-26T16:38:01.608Z,28.85
2018-07-26T16:39:01.583Z,28.94
2018-07-26T16:40:01.675Z,28.97
2018-07-26T16:41:01.561Z,28.87
2018-07-26T16:42:01.574Z,28.87
2018-07-26T16:43:01.539Z,28.91
2018-07-26T16:44:01.529Z,28.83
2018-07-26T16:45:01.517Z,28.85
2018-07-26T16:46:01.506Z,28.80
2018-07-26T16:47:01.533Z,28.82
2018-07-26T16:48:01.484Z,28.74
2018-07-26T16:49:01.477Z,28.83
2018-07-26T16:50:01.462Z,28.76
2018-07-26T16:51:01.452Z,28.73
2018-07-26T16:52:01.438Z,28.74
2018-07-26T16:53:01.443Z,28.72
2018-07-26T16:54:01.425Z,28.70
2018-07-26T16:55:01.409Z,28.70